AFL145 UZSS-UTDD
Flight info
| Callsign | AFL145 |
|---|---|
| Flight time | 0h 30m |
| Altitude | 19000 |
| Route | USETU2B USETU DCT GETLI GETLI1E |
| Aircraft | A321/M-SDE3FGHIRWY/LB1 |
Departure
| Time | 2026-04-23 17:52 |
|---|---|
| Airport | Samarkand International Airport (UZSS) |
Arrival
| Time | 2026-04-23 18:22 |
|---|---|
| Airport | Dushanbe International Airport (UTDD) |
| Time | Latitude | Longitude | Altitude | Speed | Heading |
|---|---|---|---|---|---|
| 2026-04-23 17:42 | 39.69768 | 66.98905 | 2217 ft | 0 kts | 184° |
| 2026-04-23 17:44 | 39.69774 | 66.98906 | 2217 ft | 2 kts | 182° |
| 2026-04-23 17:44 | 39.69793 | 66.98904 | 2215 ft | 3 kts | 164° |
| 2026-04-23 17:44 | 39.69818 | 66.98891 | 2214 ft | 0 kts | 151° |
| 2026-04-23 17:48 | 39.69817 | 66.98892 | 2214 ft | 1 kts | 151° |
| 2026-04-23 17:48 | 39.69814 | 66.98897 | 2215 ft | 3 kts | 136° |
| 2026-04-23 17:49 | 39.69796 | 66.99024 | 2216 ft | 8 kts | 93° |
| 2026-04-23 17:49 | 39.69792 | 66.99106 | 2219 ft | 7 kts | 93° |
| 2026-04-23 17:49 | 39.69792 | 66.99118 | 2218 ft | 4 kts | 93° |
| 2026-04-23 17:49 | 39.69786 | 66.99191 | 2221 ft | 12 kts | 101° |
| 2026-04-23 17:50 | 39.69773 | 66.99332 | 2223 ft | 20 kts | 96° |
| 2026-04-23 17:50 | 39.69750 | 66.99680 | 2227 ft | 12 kts | 89° |
| 2026-04-23 17:50 | 39.69828 | 66.99747 | 2223 ft | 19 kts | 10° |
| 2026-04-23 17:51 | 39.69944 | 66.99729 | 2224 ft | 15 kts | 306° |
| 2026-04-23 17:51 | 39.69964 | 66.99499 | 2225 ft | 55 kts | 275° |
| 2026-04-23 17:51 | 39.70147 | 66.97140 | 2732 ft | 165 kts | 276° |
| 2026-04-23 17:52 | 39.70296 | 66.95639 | 3585 ft | 176 kts | 276° |
| 2026-04-23 17:52 | 39.70566 | 66.92112 | 4783 ft | 219 kts | 275° |
| 2026-04-23 17:52 | 39.70743 | 66.90044 | 5072 ft | 242 kts | 275° |
| 2026-04-23 17:53 | 39.71133 | 66.85369 | 6092 ft | 271 kts | 274° |
| 2026-04-23 17:53 | 39.71330 | 66.82907 | 6919 ft | 273 kts | 274° |
| 2026-04-23 17:53 | 39.71482 | 66.80452 | 7690 ft | 274 kts | 266° |
| 2026-04-23 17:54 | 39.71097 | 66.78062 | 8435 ft | 274 kts | 245° |
| 2026-04-23 17:54 | 39.70039 | 66.76000 | 9193 ft | 276 kts | 224° |
| 2026-04-23 17:54 | 39.66552 | 66.73923 | 10399 ft | 295 kts | 186° |
| 2026-04-23 17:55 | 39.62417 | 66.75618 | 10844 ft | 342 kts | 140° |
| 2026-04-23 17:55 | 39.61015 | 66.78150 | 11409 ft | 355 kts | 114° |
| 2026-04-23 17:55 | 39.60393 | 66.81281 | 12012 ft | 362 kts | 103° |
| 2026-04-23 17:56 | 39.59895 | 66.84506 | 12627 ft | 368 kts | 104° |
| 2026-04-23 17:56 | 39.58886 | 66.91083 | 13895 ft | 376 kts | 104° |
| 2026-04-23 17:56 | 39.58391 | 66.94432 | 14480 ft | 380 kts | 103° |
| 2026-04-23 17:57 | 39.57884 | 66.97815 | 15016 ft | 384 kts | 104° |
| 2026-04-23 17:57 | 39.57353 | 67.01144 | 15551 ft | 388 kts | 105° |
| 2026-04-23 17:57 | 39.56029 | 67.07976 | 16610 ft | 393 kts | 115° |
| 2026-04-23 17:58 | 39.54793 | 67.11124 | 17122 ft | 392 kts | 127° |
| 2026-04-23 17:58 | 39.53135 | 67.13900 | 17637 ft | 390 kts | 138° |
| 2026-04-23 17:58 | 39.51114 | 67.16212 | 18142 ft | 388 kts | 148° |
| 2026-04-23 17:58 | 39.48947 | 67.18327 | 18620 ft | 391 kts | 148° |
| 2026-04-23 17:59 | 39.46794 | 67.20429 | 18956 ft | 394 kts | 148° |
| 2026-04-23 17:59 | 39.44607 | 67.22569 | 19068 ft | 395 kts | 148° |
| 2026-04-23 17:59 | 39.42455 | 67.24807 | 19095 ft | 400 kts | 142° |
| 2026-04-23 17:59 | 39.40485 | 67.27347 | 19093 ft | 401 kts | 140° |
| 2026-04-23 18:00 | 39.38515 | 67.29902 | 19099 ft | 401 kts | 140° |
| 2026-04-23 18:00 | 39.36543 | 67.32449 | 19100 ft | 401 kts | 140° |
| 2026-04-23 18:00 | 39.34565 | 67.34997 | 19101 ft | 401 kts | 140° |
| 2026-04-23 18:00 | 39.32590 | 67.37539 | 19107 ft | 401 kts | 140° |
| 2026-04-23 18:01 | 39.30613 | 67.40084 | 19106 ft | 401 kts | 140° |
| 2026-04-23 18:01 | 39.28635 | 67.42626 | 19115 ft | 401 kts | 140° |
| 2026-04-23 18:01 | 39.26658 | 67.45159 | 19127 ft | 402 kts | 140° |
| 2026-04-23 18:01 | 39.24676 | 67.47697 | 19124 ft | 402 kts | 140° |
| 2026-04-23 18:02 | 39.23363 | 67.49379 | 19122 ft | 402 kts | 140° |
| 2026-04-23 18:02 | 39.20710 | 67.52777 | 19120 ft | 402 kts | 140° |
| 2026-04-23 18:02 | 39.18723 | 67.55322 | 19133 ft | 402 kts | 140° |
| 2026-04-23 18:02 | 39.16735 | 67.57864 | 19139 ft | 402 kts | 140° |
| 2026-04-23 18:03 | 39.14746 | 67.60406 | 19139 ft | 403 kts | 140° |
| 2026-04-23 18:03 | 39.12759 | 67.62946 | 19148 ft | 403 kts | 140° |
| 2026-04-23 18:03 | 39.10772 | 67.65482 | 19155 ft | 402 kts | 140° |
| 2026-04-23 18:03 | 39.08791 | 67.68007 | 19167 ft | 401 kts | 141° |
| 2026-04-23 18:04 | 39.08118 | 67.68863 | 19169 ft | 400 kts | 140° |
| 2026-04-23 18:04 | 39.07532 | 67.69598 | 19145 ft | 400 kts | 142° |
| 2026-04-23 18:04 | 39.05546 | 67.72082 | 19149 ft | 397 kts | 141° |
| 2026-04-23 18:04 | 39.03573 | 67.74582 | 19157 ft | 399 kts | 141° |
| 2026-04-23 18:05 | 39.01605 | 67.77094 | 19156 ft | 399 kts | 140° |
| 2026-04-23 18:05 | 38.99635 | 67.79616 | 19164 ft | 400 kts | 140° |
| 2026-04-23 18:05 | 38.97657 | 67.82143 | 19175 ft | 400 kts | 140° |
| 2026-04-23 18:05 | 38.95684 | 67.84657 | 19172 ft | 399 kts | 140° |
| 2026-04-23 18:06 | 38.93715 | 67.87157 | 19175 ft | 398 kts | 141° |
| 2026-04-23 18:06 | 38.91736 | 67.89657 | 19181 ft | 399 kts | 141° |
| 2026-04-23 18:06 | 38.89756 | 67.92151 | 19179 ft | 398 kts | 141° |
| 2026-04-23 18:06 | 38.87781 | 67.94637 | 19187 ft | 399 kts | 141° |
| 2026-04-23 18:07 | 38.85823 | 67.97111 | 18983 ft | 387 kts | 141° |
| 2026-04-23 18:07 | 38.83941 | 67.99499 | 18756 ft | 377 kts | 140° |
| 2026-04-23 18:07 | 38.82086 | 68.01847 | 18519 ft | 372 kts | 141° |
| 2026-04-23 18:07 | 38.80256 | 68.04157 | 18090 ft | 365 kts | 140° |
| 2026-04-23 18:08 | 38.79066 | 68.05657 | 17764 ft | 362 kts | 140° |
| 2026-04-23 18:08 | 38.76685 | 68.08644 | 17183 ft | 355 kts | 140° |
| 2026-04-23 18:08 | 38.74910 | 68.10822 | 16749 ft | 351 kts | 144° |
| 2026-04-23 18:08 | 38.72942 | 68.12591 | 16324 ft | 341 kts | 155° |
| 2026-04-23 18:09 | 38.70802 | 68.13806 | 15896 ft | 333 kts | 166° |
| 2026-04-23 18:09 | 38.68600 | 68.14656 | 15491 ft | 328 kts | 167° |
| 2026-04-23 18:09 | 38.66434 | 68.15494 | 15093 ft | 325 kts | 167° |
| 2026-04-23 18:09 | 38.64286 | 68.16336 | 14677 ft | 321 kts | 166° |
| 2026-04-23 18:10 | 38.62156 | 68.17169 | 14276 ft | 318 kts | 166° |
| 2026-04-23 18:10 | 38.60055 | 68.17989 | 13876 ft | 314 kts | 166° |
| 2026-04-23 18:10 | 38.57978 | 68.18795 | 13473 ft | 309 kts | 166° |
| 2026-04-23 18:10 | 38.56621 | 68.19320 | 13200 ft | 308 kts | 166° |
| 2026-04-23 18:11 | 38.53916 | 68.20369 | 12673 ft | 305 kts | 165° |
| 2026-04-23 18:11 | 38.51886 | 68.21157 | 12278 ft | 304 kts | 165° |
| 2026-04-23 18:11 | 38.49872 | 68.21934 | 11891 ft | 302 kts | 165° |
| 2026-04-23 18:11 | 38.47875 | 68.22703 | 11485 ft | 300 kts | 165° |
| 2026-04-23 18:12 | 38.45870 | 68.23475 | 11068 ft | 299 kts | 165° |
| 2026-04-23 18:12 | 38.43890 | 68.24243 | 10668 ft | 297 kts | 163° |
| 2026-04-23 18:12 | 38.42071 | 68.25428 | 10362 ft | 293 kts | 140° |
| 2026-04-23 18:12 | 38.40816 | 68.27435 | 10201 ft | 292 kts | 117° |
| 2026-04-23 18:13 | 38.40334 | 68.29925 | 9997 ft | 293 kts | 91° |
| 2026-04-23 18:13 | 38.40739 | 68.32471 | 9860 ft | 296 kts | 66° |
| 2026-04-23 18:13 | 38.41466 | 68.33943 | 9781 ft | 297 kts | 49° |
| 2026-04-23 18:13 | 38.43694 | 68.36008 | 9339 ft | 301 kts | 31° |
| 2026-04-23 18:14 | 38.44858 | 68.36957 | 9065 ft | 298 kts | 34° |
| 2026-04-23 18:14 | 38.47016 | 68.39134 | 8476 ft | 294 kts | 44° |
| 2026-04-23 18:14 | 38.47950 | 68.40340 | 8066 ft | 289 kts | 49° |
| 2026-04-23 18:14 | 38.49173 | 68.42336 | 7518 ft | 276 kts | 57° |
| 2026-04-23 18:15 | 38.50162 | 68.44296 | 7391 ft | 252 kts | 57° |
| 2026-04-23 18:15 | 38.51093 | 68.46115 | 7255 ft | 237 kts | 57° |
| 2026-04-23 18:15 | 38.52258 | 68.48348 | 7124 ft | 220 kts | 57° |
| 2026-04-23 18:15 | 38.53062 | 68.49883 | 7030 ft | 196 kts | 57° |
| 2026-04-23 18:16 | 38.53554 | 68.50828 | 6970 ft | 183 kts | 58° |
| 2026-04-23 18:16 | 38.54067 | 68.52246 | 6915 ft | 172 kts | 72° |
| 2026-04-23 18:16 | 38.54305 | 68.53733 | 6710 ft | 168 kts | 85° |
| 2026-04-23 18:17 | 38.54323 | 68.56594 | 6254 ft | 158 kts | 89° |
| 2026-04-23 18:17 | 38.54327 | 68.57996 | 6040 ft | 157 kts | 89° |
| 2026-04-23 18:17 | 38.54341 | 68.59391 | 5822 ft | 157 kts | 86° |
| 2026-04-23 18:17 | 38.54371 | 68.60776 | 5604 ft | 156 kts | 87° |
| 2026-04-23 18:18 | 38.54384 | 68.62163 | 5379 ft | 156 kts | 88° |
| 2026-04-23 18:18 | 38.54390 | 68.63541 | 5183 ft | 155 kts | 88° |
| 2026-04-23 18:18 | 38.54391 | 68.64912 | 4985 ft | 154 kts | 89° |
| 2026-04-23 18:18 | 38.54392 | 68.66271 | 4778 ft | 154 kts | 89° |
| 2026-04-23 18:19 | 38.54391 | 68.67634 | 4572 ft | 152 kts | 89° |
| 2026-04-23 18:19 | 38.54390 | 68.68979 | 4368 ft | 151 kts | 89° |
| 2026-04-23 18:19 | 38.54389 | 68.70316 | 4168 ft | 151 kts | 89° |
| 2026-04-23 18:19 | 38.54387 | 68.71652 | 3967 ft | 150 kts | 88° |
| 2026-04-23 18:20 | 38.54385 | 68.72964 | 3777 ft | 149 kts | 89° |
| 2026-04-23 18:20 | 38.54362 | 68.74292 | 3597 ft | 148 kts | 90° |
| 2026-04-23 18:20 | 38.54359 | 68.75586 | 3393 ft | 147 kts | 88° |
| 2026-04-23 18:20 | 38.54367 | 68.76909 | 3188 ft | 147 kts | 89° |
| 2026-04-23 18:21 | 38.54357 | 68.78192 | 3007 ft | 146 kts | 88° |
| 2026-04-23 18:21 | 38.54364 | 68.79490 | 2823 ft | 146 kts | 89° |
| 2026-04-23 18:21 | 38.54369 | 68.80777 | 2661 ft | 144 kts | 90° |
| 2026-04-23 18:21 | 38.54359 | 68.82022 | 2585 ft | 132 kts | 91° |
| 2026-04-23 18:22 | 38.54362 | 68.82748 | 2576 ft | 24 kts | 89° |
| 2026-04-23 18:22 | 38.54369 | 68.82858 | 2574 ft | 9 kts | 28° |
| 2026-04-23 18:22 | 38.54398 | 68.82829 | 2575 ft | 8 kts | 258° |
| 2026-04-23 18:22 | 38.54378 | 68.82700 | 2572 ft | 23 kts | 270° |
| 2026-04-23 18:23 | 38.54377 | 68.82437 | 2576 ft | 36 kts | 270° |